createdAt,value
2017-09-03T00:00:34.354Z,99.99
2017-09-03T00:01:44.625Z,99.99
2017-09-03T00:02:54.892Z,99.99
2017-09-03T00:04:05.158Z,99.99
2017-09-03T00:05:15.101Z,99.99
2017-09-03T00:06:25.369Z,99.99
2017-09-03T00:07:35.313Z,99.99
2017-09-03T00:08:45.585Z,99.99
2017-09-03T00:09:55.529Z,99.99
2017-09-03T00:11:05.799Z,99.99
2017-09-03T00:12:16.066Z,99.99
2017-09-03T00:13:26.328Z,99.99
2017-09-03T00:14:36.622Z,99.99
2017-09-03T00:15:46.565Z,99.99
2017-09-03T00:16:56.830Z,99.99
2017-09-03T00:18:07.095Z,99.99
2017-09-03T00:19:17.038Z,99.99
2017-09-03T00:20:26.660Z,99.99
2017-09-03T00:21:36.965Z,99.99
2017-09-03T00:22:47.227Z,99.99
2017-09-03T00:23:57.177Z,99.99
2017-09-03T00:25:07.443Z,99.99
2017-09-03T00:26:17.068Z,99.99
2017-09-03T00:27:27.333Z,99.99
2017-09-03T00:28:37.276Z,99.99
2017-09-03T00:29:47.546Z,99.99
2017-09-03T00:30:57.814Z,99.99
2017-09-03T00:32:07.757Z,99.99
2017-09-03T00:33:17.386Z,99.99
2017-09-03T00:34:27.650Z,99.99
2017-09-03T00:35:37.919Z,99.99
2017-09-03T00:36:47.861Z,99.99
2017-09-03T00:37:58.129Z,99.99
2017-09-03T00:39:08.080Z,99.99
2017-09-03T00:40:18.349Z,99.99
2017-09-03T00:41:28.614Z,99.99
2017-09-03T00:42:38.239Z,99.99
2017-09-03T00:43:48.522Z,99.99
2017-09-03T00:44:58.783Z,99.99
2017-09-03T00:46:08.728Z,99.99
2017-09-03T00:47:18.996Z,99.99
2017-09-03T00:48:29.262Z,99.99
2017-09-03T00:49:39.214Z,99.99
2017-09-03T00:50:49.482Z,99.99
2017-09-03T00:51:59.750Z,99.99
2017-09-03T00:53:09.694Z,99.99
2017-09-03T00:54:19.968Z,99.99
2017-09-03T00:55:29.911Z,99.99
2017-09-03T00:56:40.178Z,99.99
2017-09-03T00:57:50.453Z,99.99
2017-09-03T00:59:00.396Z,99.99
2017-09-03T01:00:10.669Z,99.99
2017-09-03T01:01:20.934Z,99.99
2017-09-03T01:02:30.557Z,99.99
2017-09-03T01:03:40.823Z,99.99
2017-09-03T01:04:51.088Z,99.99
2017-09-03T01:06:01.359Z,99.99
2017-09-03T01:07:11.304Z,99.99
2017-09-03T01:08:21.575Z,99.99
2017-09-03T01:09:31.522Z,99.99
2017-09-03T01:10:41.789Z,99.99
2017-09-03T01:11:52.059Z,99.99
2017-09-03T01:13:02.339Z,99.99
2017-09-03T01:14:12.604Z,99.99
2017-09-03T01:15:22.879Z,99.99
2017-09-03T01:16:33.142Z,99.99
2017-09-03T01:17:43.091Z,99.99
2017-09-03T01:18:53.037Z,99.99
2017-09-03T01:20:02.982Z,99.99
2017-09-03T01:21:12.925Z,99.99
2017-09-03T01:22:22.867Z,99.99
2017-09-03T01:23:32.817Z,99.99
2017-09-03T01:24:43.080Z,99.99
2017-09-03T01:25:53.345Z,99.99
2017-09-03T01:27:03.606Z,99.99
2017-09-03T01:28:13.879Z,99.99
2017-09-03T01:29:24.143Z,99.99
2017-09-03T01:30:33.767Z,99.99
2017-09-03T01:31:44.033Z,99.99
2017-09-03T01:32:54.302Z,99.99
2017-09-03T01:34:04.257Z,99.99
2017-09-03T01:35:14.209Z,99.99
2017-09-03T01:36:24.477Z,99.99
2017-09-03T01:37:34.745Z,99.99
2017-09-03T01:38:44.716Z,99.99
2017-09-03T01:39:54.666Z,99.99
2017-09-03T01:41:04.612Z,99.99
2017-09-03T01:42:14.885Z,99.99
2017-09-03T01:43:24.829Z,99.99
2017-09-03T01:44:35.096Z,99.99
2017-09-03T01:45:45.370Z,99.99
2017-09-03T01:46:55.637Z,99.99
2017-09-03T01:48:05.919Z,99.99
2017-09-03T01:49:16.182Z,99.99
2017-09-03T01:50:26.449Z,99.99
2017-09-03T01:51:36.713Z,99.99
2017-09-03T01:52:47.288Z,99.99
2017-09-03T01:53:57.230Z,99.99
2017-09-03T01:55:07.177Z,99.99
2017-09-03T01:56:17.445Z,99.99
2017-09-03T01:57:27.392Z,99.99
2017-09-03T01:58:37.658Z,99.99
2017-09-03T01:59:47.922Z,99.99
2017-09-03T02:00:58.192Z,99.99
2017-09-03T02:02:08.462Z,99.99
2017-09-03T02:03:18.411Z,99.99
2017-09-03T02:04:28.824Z,99.99
2017-09-03T02:05:38.772Z,99.99
2017-09-03T02:06:48.719Z,99.99
2017-09-03T02:07:58.985Z,99.99
2017-09-03T02:09:09.253Z,99.99
2017-09-03T02:10:19.880Z,99.99
2017-09-03T02:11:30.145Z,99.99
2017-09-03T02:12:40.413Z,99.99
2017-09-03T02:13:50.365Z,99.99
2017-09-03T02:15:00.632Z,99.99
2017-09-03T02:16:14.572Z,99.99
2017-09-03T02:17:24.838Z,99.99
2017-09-03T02:18:34.459Z,99.99
2017-09-03T02:19:44.726Z,99.99
2017-09-03T02:20:54.992Z,99.99
2017-09-03T02:22:04.613Z,99.99
2017-09-03T02:23:14.882Z,99.99
2017-09-03T02:24:25.149Z,99.99
2017-09-03T02:25:35.423Z,99.99
2017-09-03T02:26:45.688Z,99.99
2017-09-03T02:27:55.950Z,99.99
2017-09-03T02:29:05.896Z,99.99
2017-09-03T02:30:16.169Z,99.99
2017-09-03T02:31:26.445Z,99.99
2017-09-03T02:32:36.393Z,99.99
2017-09-03T02:33:46.661Z,99.99
2017-09-03T02:34:56.942Z,99.99
2017-09-03T02:36:06.565Z,99.99
2017-09-03T02:37:16.507Z,99.99
2017-09-03T02:38:26.778Z,99.99
2017-09-03T02:39:36.726Z,99.99
2017-09-03T02:40:46.993Z,99.99
2017-09-03T02:41:57.260Z,99.99
2017-09-03T02:43:06.885Z,99.99
2017-09-03T02:44:17.154Z,99.99
2017-09-03T02:45:27.417Z,99.99
2017-09-03T02:46:37.685Z,99.99
2017-09-03T02:47:47.957Z,99.99
2017-09-03T02:48:58.223Z,99.99
2017-09-03T02:50:08.490Z,99.99
2017-09-03T02:51:18.442Z,99.99
2017-09-03T02:52:28.713Z,99.99
2017-09-03T02:53:38.987Z,99.99
2017-09-03T02:54:49.257Z,99.99
2017-09-03T02:55:59.525Z,99.99
2017-09-03T02:57:09.470Z,99.99
2017-09-03T02:58:19.092Z,99.99
2017-09-03T02:59:29.036Z,99.99
2017-09-03T03:00:38.659Z,99.99
2017-09-03T03:01:48.603Z,99.99
2017-09-03T03:02:58.872Z,99.99
2017-09-03T03:04:08.817Z,99.99
2017-09-03T03:05:19.093Z,99.99
2017-09-03T03:06:29.354Z,99.99
2017-09-03T03:07:39.300Z,99.99
2017-09-03T03:08:49.243Z,99.99
2017-09-03T03:09:59.506Z,99.99
2017-09-03T03:11:09.451Z,99.99
2017-09-03T03:12:19.719Z,99.99
2017-09-03T03:13:29.988Z,99.99
2017-09-03T03:14:39.931Z,99.99
2017-09-03T03:15:50.195Z,99.99
2017-09-03T03:17:00.462Z,99.99
2017-09-03T03:18:10.730Z,99.99
2017-09-03T03:19:21.002Z,99.99
2017-09-03T03:20:30.942Z,99.99
2017-09-03T03:21:41.207Z,99.99
2017-09-03T03:22:51.471Z,99.99
2017-09-03T03:24:01.426Z,99.99
2017-09-03T03:25:11.688Z,99.99
2017-09-03T03:26:21.635Z,99.99
2017-09-03T03:27:31.582Z,99.99
2017-09-03T03:28:41.844Z,99.99
2017-09-03T03:29:51.791Z,99.99
2017-09-03T03:31:02.056Z,99.99
2017-09-03T03:32:12.003Z,99.99
2017-09-03T03:33:21.950Z,99.99
2017-09-03T03:34:31.250Z,99.99
2017-09-03T03:35:41.515Z,99.99
2017-09-03T03:36:51.465Z,99.99
2017-09-03T03:38:01.406Z,99.99
2017-09-03T03:39:11.029Z,99.99
2017-09-03T03:40:21.294Z,99.99
2017-09-03T03:41:31.559Z,99.99
2017-09-03T03:42:41.823Z,99.99
2017-09-03T03:43:52.093Z,99.99
2017-09-03T03:45:02.356Z,99.99
2017-09-03T03:46:12.303Z,99.99
2017-09-03T03:47:22.568Z,99.99
2017-09-03T03:48:31.547Z,99.99
2017-09-03T03:49:41.819Z,99.99
2017-09-03T03:50:52.082Z,99.99
2017-09-03T03:52:02.390Z,99.99
2017-09-03T03:53:12.655Z,99.99
2017-09-03T03:54:22.926Z,99.99
2017-09-03T03:55:32.876Z,99.99
2017-09-03T03:56:42.822Z,99.99
2017-09-03T03:57:52.767Z,99.99
2017-09-03T03:59:02.709Z,99.99
2017-09-03T04:00:12.975Z,99.99
2017-09-03T04:01:22.932Z,99.99
2017-09-03T04:02:33.196Z,99.99
2017-09-03T04:03:43.463Z,99.99
2017-09-03T04:04:53.727Z,99.99
2017-09-03T04:06:04.000Z,99.99
2017-09-03T04:07:14.267Z,99.99
2017-09-03T04:08:23.888Z,99.99
2017-09-03T04:09:33.841Z,99.99
2017-09-03T04:10:44.111Z,99.99
2017-09-03T04:11:54.374Z,99.99
2017-09-03T04:13:04.676Z,99.99
2017-09-03T04:14:14.941Z,99.99
2017-09-03T04:15:25.212Z,99.99
2017-09-03T04:16:35.165Z,99.99
2017-09-03T04:17:45.428Z,99.99
2017-09-03T04:18:55.697Z,99.99
2017-09-03T04:20:05.320Z,99.99
2017-09-03T04:21:15.591Z,99.99
2017-09-03T04:22:25.534Z,99.99
2017-09-03T04:23:35.487Z,99.99
2017-09-03T04:24:45.761Z,99.99
2017-09-03T04:25:56.032Z,99.99
2017-09-03T04:27:05.981Z,99.99
2017-09-03T04:28:16.255Z,99.99
2017-09-03T04:29:26.526Z,99.99
2017-09-03T04:30:36.470Z,99.99
2017-09-03T04:31:46.744Z,99.99
2017-09-03T04:32:56.686Z,99.99
2017-09-03T04:34:06.959Z,99.99
2017-09-03T04:35:17.227Z,99.99
2017-09-03T04:36:27.171Z,99.99
2017-09-03T04:37:37.438Z,99.99
2017-09-03T04:38:47.705Z,99.99
2017-09-03T04:39:57.330Z,99.99
2017-09-03T04:41:07.595Z,99.99
2017-09-03T04:42:17.871Z,99.99
2017-09-03T04:43:28.134Z,99.99
2017-09-03T04:44:38.079Z,99.99
2017-09-03T04:45:48.344Z,99.99
2017-09-03T04:46:58.620Z,99.99
2017-09-03T04:48:08.903Z,99.99
2017-09-03T04:49:19.167Z,99.99
2017-09-03T04:50:29.116Z,99.99
2017-09-03T04:51:39.120Z,99.99
2017-09-03T04:52:49.069Z,99.99
2017-09-03T04:53:59.020Z,99.99
2017-09-03T04:55:08.963Z,99.99
2017-09-03T04:56:19.229Z,99.99
2017-09-03T04:57:29.173Z,99.99
2017-09-03T04:58:39.121Z,99.99
2017-09-03T04:59:49.386Z,99.99
2017-09-03T05:00:59.661Z,99.99
2017-09-03T05:02:09.931Z,99.99
2017-09-03T05:03:20.240Z,99.99
2017-09-03T05:04:30.181Z,99.99
2017-09-03T05:05:40.134Z,99.99
2017-09-03T05:06:50.396Z,99.99
2017-09-03T05:08:00.661Z,99.99
2017-09-03T05:09:10.610Z,99.99
2017-09-03T05:10:20.875Z,99.99
2017-09-03T05:11:30.823Z,99.99
2017-09-03T05:12:41.089Z,99.99
2017-09-03T05:13:51.354Z,99.99
2017-09-03T05:15:01.626Z,99.99
2017-09-03T05:16:11.891Z,99.99
2017-09-03T05:17:22.161Z,99.99
2017-09-03T05:18:31.785Z,99.99
2017-09-03T05:19:42.055Z,99.99
2017-09-03T05:20:52.328Z,99.99
2017-09-03T05:22:02.596Z,99.99
2017-09-03T05:23:12.892Z,99.99
2017-09-03T05:24:23.163Z,99.99
2017-09-03T05:25:33.427Z,99.99
2017-09-03T05:26:43.696Z,99.99
2017-09-03T05:27:53.963Z,99.99
2017-09-03T05:29:04.230Z,99.99
2017-09-03T05:30:14.496Z,99.99
2017-09-03T05:31:24.764Z,99.99
2017-09-03T05:32:34.388Z,99.99
2017-09-03T05:33:44.333Z,99.99
2017-09-03T05:34:54.606Z,99.99
2017-09-03T05:36:04.874Z,99.99
2017-09-03T05:37:15.144Z,99.99
2017-09-03T05:38:25.107Z,99.99
2017-09-03T05:39:34.729Z,99.99
2017-09-03T05:40:44.713Z,99.99
2017-09-03T05:41:54.656Z,99.99
2017-09-03T05:43:04.923Z,99.99
2017-09-03T05:44:15.195Z,99.99
2017-09-03T05:45:25.461Z,99.99
2017-09-03T05:46:35.736Z,99.99
2017-09-03T05:47:46.010Z,99.99
2017-09-03T05:48:55.951Z,99.99
2017-09-03T05:50:06.224Z,99.99
2017-09-03T05:51:16.527Z,99.99
2017-09-03T05:52:26.469Z,99.99
2017-09-03T05:53:36.418Z,99.99
2017-09-03T05:54:46.687Z,99.99
2017-09-03T05:55:56.952Z,99.99
2017-09-03T05:57:06.583Z,99.99
2017-09-03T05:58:16.529Z,99.99
2017-09-03T05:59:26.804Z,99.99
2017-09-03T06:00:36.751Z,99.99
2017-09-03T06:01:47.017Z,99.99
2017-09-03T06:02:57.280Z,99.99
2017-09-03T06:04:07.548Z,99.99
2017-09-03T06:05:17.819Z,99.99
2017-09-03T06:06:27.764Z,99.99
2017-09-03T06:07:38.038Z,99.99
2017-09-03T06:08:48.303Z,99.99
2017-09-03T06:09:58.274Z,99.99
2017-09-03T06:11:08.556Z,99.99
2017-09-03T06:12:18.182Z,99.99
2017-09-03T06:13:28.128Z,99.99
2017-09-03T06:14:38.397Z,99.99
2017-09-03T06:15:48.658Z,99.99
2017-09-03T06:16:58.931Z,99.99
2017-09-03T06:18:08.880Z,99.99
2017-09-03T06:19:18.856Z,99.99
2017-09-03T06:20:28.823Z,99.99
2017-09-03T06:21:39.106Z,99.99
2017-09-03T06:22:49.388Z,99.99
2017-09-03T06:23:59.345Z,99.99
2017-09-03T06:25:09.296Z,99.99
2017-09-03T06:26:19.562Z,99.99
2017-09-03T06:27:29.511Z,99.99
2017-09-03T06:28:39.137Z,99.99
2017-09-03T06:29:49.403Z,99.99
2017-09-03T06:30:59.672Z,99.99
2017-09-03T06:32:09.961Z,99.99
2017-09-03T06:33:20.238Z,99.99
2017-09-03T06:34:29.867Z,99.99
2017-09-03T06:35:40.134Z,99.99
2017-09-03T06:36:49.758Z,99.99
2017-09-03T06:38:00.030Z,99.99
2017-09-03T06:39:10.311Z,99.99
2017-09-03T06:40:20.581Z,99.99
2017-09-03T06:41:30.205Z,99.99
2017-09-03T06:42:40.471Z,99.99
2017-09-03T06:43:50.739Z,99.99
2017-09-03T06:45:01.004Z,99.99
2017-09-03T06:46:11.274Z,99.99
2017-09-03T06:47:21.540Z,99.99
2017-09-03T06:48:31.810Z,99.99
2017-09-03T06:49:42.074Z,99.99
2017-09-03T06:50:52.358Z,99.99
2017-09-03T06:52:02.626Z,99.99
2017-09-03T06:53:12.570Z,99.99
2017-09-03T06:54:22.841Z,99.99
2017-09-03T06:55:32.143Z,99.99
2017-09-03T06:56:42.408Z,99.99
2017-09-03T06:57:52.677Z,99.99
2017-09-03T06:59:02.982Z,99.99
2017-09-03T07:00:13.250Z,99.99
2017-09-03T07:01:23.519Z,99.99
2017-09-03T07:02:33.466Z,99.99
2017-09-03T07:03:43.414Z,99.99
2017-09-03T07:04:53.682Z,99.99
2017-09-03T07:06:03.948Z,99.99
2017-09-03T07:07:14.234Z,99.99
2017-09-03T07:08:24.499Z,99.99
2017-09-03T07:09:34.123Z,99.99
2017-09-03T07:10:44.392Z,99.99
2017-09-03T07:11:54.340Z,99.99
2017-09-03T07:13:04.303Z,99.99
2017-09-03T07:14:14.572Z,99.99
2017-09-03T07:15:24.838Z,99.99
2017-09-03T07:16:35.107Z,99.99
2017-09-03T07:17:45.052Z,99.99
2017-09-03T07:18:55.322Z,99.99
2017-09-03T07:20:05.592Z,99.99
2017-09-03T07:21:15.547Z,99.99
2017-09-03T07:22:25.826Z,99.99
2017-09-03T07:23:35.774Z,99.99
2017-09-03T07:24:46.041Z,99.99
2017-09-03T07:25:56.321Z,99.99
2017-09-03T07:27:06.587Z,99.99
2017-09-03T07:28:16.859Z,99.99
2017-09-03T07:29:27.122Z,99.99
2017-09-03T07:30:37.071Z,99.99
2017-09-03T07:31:47.342Z,99.99
2017-09-03T07:32:57.289Z,99.99
2017-09-03T07:34:07.565Z,99.99
2017-09-03T07:35:17.834Z,99.99
2017-09-03T07:36:27.777Z,99.99
2017-09-03T07:37:37.722Z,99.99
2017-09-03T07:38:47.348Z,99.99
2017-09-03T07:39:57.297Z,99.99
2017-09-03T07:41:07.248Z,99.99
2017-09-03T07:42:17.519Z,99.99
2017-09-03T07:43:27.786Z,99.99
2017-09-03T07:44:37.732Z,99.99
2017-09-03T07:45:48.005Z,99.99
2017-09-03T07:46:57.629Z,99.99
2017-09-03T07:48:07.255Z,99.99
2017-09-03T07:49:17.532Z,99.99
2017-09-03T07:50:27.482Z,99.65
2017-09-03T07:51:37.781Z,99.55
2017-09-03T07:52:48.049Z,99.18
2017-09-03T07:53:57.675Z,97.17
2017-09-03T07:55:07.627Z,97.89
2017-09-03T07:56:17.895Z,98.36
2017-09-03T07:57:28.165Z,97.99
2017-09-03T07:58:38.430Z,98.74
2017-09-03T07:59:48.377Z,98.55
2017-09-03T08:00:58.002Z,97.56
2017-09-03T08:02:07.629Z,97.56
2017-09-03T08:03:17.898Z,97.08
2017-09-03T08:04:27.848Z,96.84
2017-09-03T08:05:37.475Z,97.08
2017-09-03T08:06:47.746Z,97.6
2017-09-03T08:07:57.696Z,96.7
2017-09-03T08:09:07.968Z,96.89
2017-09-03T08:10:18.245Z,97.65
2017-09-03T08:11:28.514Z,97.08
2017-09-03T08:12:38.142Z,96.89
2017-09-03T08:13:48.412Z,96.8
2017-09-03T08:14:58.679Z,97.08
2017-09-03T08:16:08.951Z,97.27
2017-09-03T08:17:18.897Z,96.89
2017-09-03T08:18:28.846Z,96.6
2017-09-03T08:19:39.112Z,96.32
2017-09-03T08:20:49.090Z,95.7
2017-09-03T08:21:59.049Z,94.37
2017-09-03T08:23:08.997Z,94.6
2017-09-03T08:24:18.630Z,94.7
2017-09-03T08:25:28.588Z,94.03
2017-09-03T08:26:38.540Z,94.89
2017-09-03T08:27:48.165Z,93.46
2017-09-03T08:28:58.436Z,94.7
2017-09-03T08:30:08.391Z,95.36
2017-09-03T08:31:18.337Z,94.7
2017-09-03T08:32:28.611Z,94.41
2017-09-03T08:33:38.565Z,94.51
2017-09-03T08:34:48.846Z,93.84
2017-09-03T08:35:58.798Z,93.46
2017-09-03T08:37:08.746Z,93.37
2017-09-03T08:38:18.707Z,94.51
2017-09-03T08:39:28.994Z,92.89
2017-09-03T08:40:39.276Z,92.36
2017-09-03T08:41:49.547Z,91.79
2017-09-03T08:42:59.827Z,93.41
2017-09-03T08:44:09.455Z,93.03
2017-09-03T08:45:19.444Z,93.51
2017-09-03T08:46:29.716Z,91.79
2017-09-03T08:47:39.986Z,91.74
2017-09-03T08:48:49.957Z,90.69
2017-09-03T08:50:00.227Z,90.79
2017-09-03T08:51:10.503Z,89.74
2017-09-03T08:52:20.775Z,88.69
2017-09-03T08:53:31.045Z,89.74
2017-09-03T08:54:41.012Z,90.22
2017-09-03T08:55:50.635Z,90.5
2017-09-03T08:57:00.268Z,89.74
2017-09-03T08:58:09.905Z,89.64
2017-09-03T08:59:20.175Z,89.74
2017-09-03T09:00:30.123Z,90.41
2017-09-03T09:01:40.072Z,89.74
2017-09-03T09:02:50.020Z,90.31
2017-09-03T09:04:00.292Z,90.79
2017-09-03T09:05:10.568Z,91.27
2017-09-03T09:06:20.840Z,90.88
2017-09-03T09:07:31.114Z,90.07
2017-09-03T09:08:41.070Z,89.88
2017-09-03T09:09:51.342Z,88.45
2017-09-03T09:11:01.612Z,88.73
2017-09-03T09:12:11.889Z,88.78
2017-09-03T09:13:21.837Z,88.2
2017-09-03T09:14:31.471Z,87.82
2017-09-03T09:15:41.745Z,88.01
2017-09-03T09:16:52.014Z,87.44
2017-09-03T09:18:02.287Z,86.91
2017-09-03T09:19:12.571Z,87.1
2017-09-03T09:20:22.524Z,86.91
2017-09-03T09:21:32.800Z,86.29
2017-09-03T09:22:43.074Z,84.76
2017-09-03T09:23:53.034Z,84.38
2017-09-03T09:25:03.312Z,84.47
2017-09-03T09:26:13.594Z,84.76
2017-09-03T09:27:23.872Z,84.13
2017-09-03T09:28:33.177Z,83.65
2017-09-03T09:29:43.131Z,82.6
2017-09-03T09:30:52.761Z,81.84
2017-09-03T09:32:03.034Z,81.88
2017-09-03T09:33:12.987Z,81.26
2017-09-03T09:34:23.264Z,80.5
2017-09-03T09:35:33.217Z,80.79
2017-09-03T09:36:43.165Z,80.21
2017-09-03T09:37:52.800Z,80.79
2017-09-03T09:39:03.078Z,81.36
2017-09-03T09:40:13.351Z,81.26
2017-09-03T09:41:23.630Z,82.31
2017-09-03T09:42:33.261Z,82.93
2017-09-03T09:43:43.213Z,82.17
2017-09-03T09:44:53.182Z,81.49
2017-09-03T09:46:03.459Z,81.97
2017-09-03T09:47:13.087Z,80.87
2017-09-03T09:48:23.358Z,80
2017-09-03T09:49:33.643Z,78.57
2017-09-03T09:50:43.915Z,78.95
2017-09-03T09:51:54.188Z,78.09
2017-09-03T09:53:03.826Z,78.34
2017-09-03T09:54:14.110Z,78.14
2017-09-03T09:55:24.060Z,78.72
2017-09-03T09:56:34.335Z,79.96
2017-09-03T09:57:43.965Z,79.96
2017-09-03T09:58:54.243Z,79.77
2017-09-03T10:00:04.524Z,77.95
2017-09-03T10:01:14.800Z,77.92
2017-09-03T10:02:24.755Z,78.87
2017-09-03T10:03:35.030Z,78.78
2017-09-03T10:04:45.301Z,79
2017-09-03T10:05:55.252Z,79.2
2017-09-03T10:07:05.523Z,79.2
2017-09-03T10:08:15.476Z,79.96
2017-09-03T10:09:25.748Z,79.77
2017-09-03T10:10:35.699Z,79.2
2017-09-03T10:11:45.650Z,79.2
2017-09-03T10:12:55.604Z,79.87
2017-09-03T10:14:05.879Z,77.76
2017-09-03T10:15:15.190Z,76.9
2017-09-03T10:16:25.463Z,78.3
2017-09-03T10:17:35.426Z,78.72
2017-09-03T10:18:45.710Z,79
2017-09-03T10:19:55.662Z,78.57
2017-09-03T10:21:05.615Z,78.86
2017-09-03T10:22:15.894Z,78.47
2017-09-03T10:23:25.845Z,77.08
2017-09-03T10:24:35.813Z,76.6
2017-09-03T10:25:46.102Z,76.6
2017-09-03T10:26:56.056Z,76.98
2017-09-03T10:28:06.006Z,74.68
2017-09-03T10:29:15.966Z,72.58
2017-09-03T10:30:26.260Z,74.87
2017-09-03T10:31:36.218Z,74.68
2017-09-03T10:32:46.173Z,73.91
2017-09-03T10:33:56.144Z,74.68
2017-09-03T10:35:06.103Z,74.58
2017-09-03T10:36:16.060Z,72.86
2017-09-03T10:37:26.014Z,72.96
2017-09-03T10:38:36.289Z,73.63
2017-09-03T10:39:46.242Z,75.07
2017-09-03T10:40:56.207Z,75.16
2017-09-03T10:42:06.482Z,74.58
2017-09-03T10:43:16.764Z,75.01
2017-09-03T10:44:27.040Z,70.6
2017-09-03T10:45:36.671Z,70.7
2017-09-03T10:46:46.957Z,71.33
2017-09-03T10:47:57.158Z,72.48
2017-09-03T10:49:07.441Z,74.01
2017-09-03T10:50:17.726Z,71.94
2017-09-03T10:51:28.035Z,72.32
2017-09-03T10:52:38.309Z,71.84
2017-09-03T10:53:48.592Z,72.71
2017-09-03T10:54:58.546Z,71.08
2017-09-03T10:56:08.835Z,73.95
2017-09-03T10:57:19.110Z,73.95
2017-09-03T10:58:29.392Z,73.76
2017-09-03T10:59:39.023Z,70.83
2017-09-03T11:00:48.976Z,71.31
2017-09-03T11:01:59.259Z,72.84
2017-09-03T11:03:09.537Z,71.11
2017-09-03T11:04:19.811Z,68.56
2017-09-03T11:05:30.084Z,69.1
2017-09-03T11:06:39.728Z,69.17
2017-09-03T11:07:49.685Z,69.83
2017-09-03T11:08:59.962Z,71.27
2017-09-03T11:10:10.241Z,70.7
2017-09-03T11:11:20.212Z,70.41
2017-09-03T11:12:30.488Z,70.98
2017-09-03T11:13:40.441Z,72.71
2017-09-03T11:14:50.394Z,72.27
2017-09-03T11:16:00.042Z,72.01
2017-09-03T11:17:09.996Z,70.26
2017-09-03T11:18:20.282Z,69.43
2017-09-03T11:19:30.556Z,68.02
2017-09-03T11:20:40.201Z,66.27
2017-09-03T11:21:50.158Z,66.39
2017-09-03T11:22:59.791Z,62.38
2017-09-03T11:24:09.748Z,61.74
2017-09-03T11:25:19.381Z,60.39
2017-09-03T11:26:29.710Z,59.07
2017-09-03T11:27:39.663Z,59.52
2017-09-03T11:28:49.625Z,59.84
2017-09-03T11:29:59.904Z,59.45
2017-09-03T11:31:10.188Z,60.26
2017-09-03T11:32:20.489Z,58.87
2017-09-03T11:33:29.813Z,56.1
2017-09-03T11:34:40.094Z,56.71
2017-09-03T11:35:50.378Z,56.83
2017-09-03T11:37:00.659Z,55.02
2017-09-03T11:38:10.298Z,54.98
2017-09-03T11:39:20.585Z,54.11
2017-09-03T11:40:30.879Z,53.29
2017-09-03T11:41:40.841Z,52.54
2017-09-03T11:42:50.808Z,51.4
2017-09-03T11:44:00.767Z,50.56
2017-09-03T11:45:11.052Z,50.87
2017-09-03T11:46:21.012Z,49.15
2017-09-03T11:47:30.975Z,50.02
2017-09-03T11:48:41.259Z,49.51
2017-09-03T11:49:51.227Z,49.97
2017-09-03T11:51:01.188Z,49.77
2017-09-03T11:52:11.149Z,48.9
2017-09-03T11:53:21.439Z,48.61
2017-09-03T11:54:31.407Z,47.57
2017-09-03T11:55:40.725Z,47.4
2017-09-03T11:56:51.009Z,45.57
2017-09-03T11:58:01.301Z,46.28
2017-09-03T11:59:11.587Z,44.65
2017-09-03T12:00:21.559Z,44.94
2017-09-03T12:01:31.846Z,44.96
2017-09-03T12:02:42.130Z,44.01
2017-09-03T12:03:52.418Z,41.86
2017-09-03T12:05:02.395Z,43.33
2017-09-03T12:06:12.697Z,43.64
2017-09-03T12:07:22.996Z,42.3
2017-09-03T12:08:32.960Z,41.93
2017-09-03T12:09:43.247Z,41.83
2017-09-03T12:10:53.210Z,41.46
2017-09-03T12:12:03.519Z,42.16
2017-09-03T12:13:13.160Z,41.19
2017-09-03T12:14:23.125Z,41.21
2017-09-03T12:15:32.773Z,40.16
2017-09-03T12:16:43.056Z,39.98
2017-09-03T12:17:53.028Z,39.39
2017-09-03T12:19:03.007Z,37.95
2017-09-03T12:20:12.652Z,37.95
2017-09-03T12:21:22.937Z,37.65
2017-09-03T12:22:32.906Z,37.27
2017-09-03T12:23:43.195Z,36.3
2017-09-03T12:24:53.504Z,36.1
2017-09-03T12:26:03.148Z,35.91
2017-09-03T12:27:13.433Z,35.71
2017-09-03T12:28:22.758Z,36.1
2017-09-03T12:29:33.047Z,35.44
2017-09-03T12:30:43.335Z,35.16
2017-09-03T12:31:53.297Z,33
2017-09-03T12:33:03.263Z,33.28
2017-09-03T12:34:13.565Z,34.18
2017-09-03T12:35:23.855Z,33.79
2017-09-03T12:36:33.818Z,33.7
2017-09-03T12:37:44.113Z,32.63
2017-09-03T12:38:54.404Z,33.33
2017-09-03T12:40:04.697Z,33.33
2017-09-03T12:41:14.663Z,30.21
2017-09-03T12:42:24.950Z,30.9
2017-09-03T12:43:34.922Z,30.88
2017-09-03T12:44:44.566Z,31.27
2017-09-03T12:45:54.857Z,30.39
2017-09-03T12:47:05.149Z,30.58
2017-09-03T12:48:15.114Z,30.1
2017-09-03T12:49:25.398Z,30.29
2017-09-03T12:50:35.691Z,30.39
2017-09-03T12:51:45.980Z,31.17
2017-09-03T12:52:55.948Z,31.47
2017-09-03T12:54:06.241Z,30.5
2017-09-03T12:55:16.533Z,30.8
2017-09-03T12:56:26.822Z,30.21
2017-09-03T12:57:36.789Z,27.77
2017-09-03T12:58:46.757Z,28.74
2017-09-03T12:59:57.051Z,29.14
2017-09-03T13:01:07.340Z,28.75
2017-09-03T13:02:17.637Z,28.64
2017-09-03T13:03:27.603Z,28.06
2017-09-03T13:04:37.246Z,28.25
2017-09-03T13:05:47.533Z,27.15
2017-09-03T13:06:57.500Z,26.86
2017-09-03T13:08:07.469Z,26.96
2017-09-03T13:09:17.434Z,27.24
2017-09-03T13:10:27.757Z,26.95
2017-09-03T13:11:37.402Z,27.03
2017-09-03T13:12:47.688Z,28.11
2017-09-03T13:13:57.339Z,28.31
2017-09-03T13:15:07.308Z,26.84
2017-09-03T13:16:17.279Z,26.55
2017-09-03T13:17:27.252Z,27.52
2017-09-03T13:18:37.545Z,27.23
2017-09-03T13:19:47.833Z,27.63
2017-09-03T13:20:57.799Z,27.14
2017-09-03T13:22:07.765Z,26.17
2017-09-03T13:23:18.054Z,26.45
2017-09-03T13:24:28.342Z,26.84
2017-09-03T13:25:38.636Z,26.84
2017-09-03T13:26:48.927Z,27.81
2017-09-03T13:27:59.223Z,27.04
2017-09-03T13:29:09.512Z,27.23
2017-09-03T13:30:19.805Z,27.72
2017-09-03T13:31:30.096Z,27.83
2017-09-03T13:32:40.064Z,27.83
2017-09-03T13:33:50.351Z,26.84
2017-09-03T13:35:00.319Z,27.14
2017-09-03T13:36:10.608Z,26.96
2017-09-03T13:37:20.257Z,27.14
2017-09-03T13:38:30.549Z,26.27
2017-09-03T13:39:40.518Z,26.56
2017-09-03T13:40:50.807Z,26.84
2017-09-03T13:42:01.096Z,27.24
2017-09-03T13:43:11.104Z,26.67
2017-09-03T13:44:21.398Z,27.06
2017-09-03T13:45:31.688Z,25.4
2017-09-03T13:46:41.334Z,24.6
2017-09-03T13:47:51.629Z,25.2
2017-09-03T13:49:01.917Z,25.78
2017-09-03T13:50:12.213Z,25.11
2017-09-03T13:51:22.502Z,25.6
2017-09-03T13:52:32.472Z,25.01
2017-09-03T13:53:42.757Z,25.7
2017-09-03T13:54:53.047Z,25.7
2017-09-03T13:56:03.336Z,25.51
2017-09-03T13:57:13.306Z,24.73
2017-09-03T13:58:23.277Z,24.74
2017-09-03T13:59:33.561Z,25.13
2017-09-03T14:00:43.526Z,24.54
2017-09-03T14:01:53.818Z,25.57
2017-09-03T14:03:04.118Z,25.55
2017-09-03T14:04:14.404Z,26.5
2017-09-03T14:05:24.373Z,26.97
2017-09-03T14:06:34.658Z,28.03
2017-09-03T14:07:44.979Z,28.88
2017-09-03T14:08:54.940Z,28
2017-09-03T14:10:04.906Z,27.9
2017-09-03T14:11:15.190Z,28.4
2017-09-03T14:12:25.483Z,26.37
2017-09-03T14:13:35.767Z,26.95
2017-09-03T14:14:46.054Z,27.17
2017-09-03T14:15:56.339Z,26.68
2017-09-03T14:17:06.623Z,25.72
2017-09-03T14:18:16.266Z,25.82
2017-09-03T14:19:26.550Z,26.7
2017-09-03T14:20:36.880Z,26.32
2017-09-03T14:21:47.180Z,25.46
2017-09-03T14:22:57.145Z,23.9
2017-09-03T14:24:07.435Z,23.9
2017-09-03T14:25:17.408Z,24.59
2017-09-03T14:26:27.372Z,24.51
2017-09-03T14:27:37.043Z,24.7
2017-09-03T14:28:47.333Z,24.62
2017-09-03T14:29:57.298Z,24.04
2017-09-03T14:31:07.262Z,23.55
2017-09-03T14:32:17.227Z,23.56
2017-09-03T14:33:27.193Z,24.16
2017-09-03T14:34:37.482Z,23.77
2017-09-03T14:35:47.771Z,22.7
2017-09-03T14:36:57.734Z,23.09
2017-09-03T14:38:07.737Z,22.5
2017-09-03T14:39:17.383Z,23.19
2017-09-03T14:40:27.673Z,23.78
2017-09-03T14:41:37.965Z,22.31
2017-09-03T14:42:48.251Z,22.31
2017-09-03T14:43:57.900Z,21.94
2017-09-03T14:45:07.865Z,21.73
2017-09-03T14:46:18.156Z,20.95
2017-09-03T14:47:28.443Z,21.92
2017-09-03T14:48:38.409Z,21.05
2017-09-03T14:49:48.699Z,22.31
2017-09-03T14:50:58.989Z,22.71
2017-09-03T14:52:08.313Z,23.09
2017-09-03T14:53:18.281Z,21.83
2017-09-03T14:54:28.573Z,22.02
2017-09-03T14:55:38.551Z,21.92
2017-09-03T14:56:48.514Z,21.73
2017-09-03T14:57:58.804Z,20.25
2017-09-03T14:59:08.776Z,21.72
2017-09-03T15:00:19.063Z,21.83
2017-09-03T15:01:29.352Z,21.53
2017-09-03T15:02:39.322Z,21.83
2017-09-03T15:03:49.607Z,20.54
2017-09-03T15:04:59.575Z,21.14